sensor_id;sensor_type;location;lat;lon;timestamp;temperature;humidity
18729;DHT22;9493;51.884;5.188;2023-06-04T00:00:05;14.20;97.30
18729;DHT22;9493;51.884;5.188;2023-06-04T00:02:32;14.20;97.60
18729;DHT22;9493;51.884;5.188;2023-06-04T00:04:59;14.10;97.80
18729;DHT22;9493;51.884;5.188;2023-06-04T00:07:25;14.10;98.00
18729;DHT22;9493;51.884;5.188;2023-06-04T00:09:52;14.10;98.20
18729;DHT22;9493;51.884;5.188;2023-06-04T00:12:19;14.10;98.40
18729;DHT22;9493;51.884;5.188;2023-06-04T00:14:46;14.00;98.60
18729;DHT22;9493;51.884;5.188;2023-06-04T00:17:14;14.00;98.90
18729;DHT22;9493;51.884;5.188;2023-06-04T00:19:41;14.00;99.10
18729;DHT22;9493;51.884;5.188;2023-06-04T00:22:08;13.90;99.30
18729;DHT22;9493;51.884;5.188;2023-06-04T00:24:37;13.80;99.60
18729;DHT22;9493;51.884;5.188;2023-06-04T00:27:04;13.80;99.70
18729;DHT22;9493;51.884;5.188;2023-06-04T00:29:31;13.80;99.80
18729;DHT22;9493;51.884;5.188;2023-06-04T00:32:00;13.80;99.90
18729;DHT22;9493;51.884;5.188;2023-06-04T00:34:28;13.70;99.90
18729;DHT22;9493;51.884;5.188;2023-06-04T00:36:55;13.70;99.90
18729;DHT22;9493;51.884;5.188;2023-06-04T00:39:22;13.80;99.90
18729;DHT22;9493;51.884;5.188;2023-06-04T00:41:49;13.70;99.90
18729;DHT22;9493;51.884;5.188;2023-06-04T00:44:15;13.60;99.90
18729;DHT22;9493;51.884;5.188;2023-06-04T00:46:43;13.50;99.90
18729;DHT22;9493;51.884;5.188;2023-06-04T00:49:13;13.50;99.90
18729;DHT22;9493;51.884;5.188;2023-06-04T00:51:41;13.50;99.90
18729;DHT22;9493;51.884;5.188;2023-06-04T00:54:08;13.50;99.90
18729;DHT22;9493;51.884;5.188;2023-06-04T00:56:35;13.60;99.90
18729;DHT22;9493;51.884;5.188;2023-06-04T00:59:03;13.50;99.90
18729;DHT22;9493;51.884;5.188;2023-06-04T01:01:34;13.40;99.90
18729;DHT22;9493;51.884;5.188;2023-06-04T01:04:09;13.40;99.90
18729;DHT22;9493;51.884;5.188;2023-06-04T01:06:39;13.30;99.90
18729;DHT22;9493;51.884;5.188;2023-06-04T01:09:10;13.30;99.90
18729;DHT22;9493;51.884;5.188;2023-06-04T01:11:38;13.30;99.90
18729;DHT22;9493;51.884;5.188;2023-06-04T01:14:07;13.20;99.90
18729;DHT22;9493;51.884;5.188;2023-06-04T01:16:37;13.20;99.90
18729;DHT22;9493;51.884;5.188;2023-06-04T01:19:13;13.20;99.90
18729;DHT22;9493;51.884;5.188;2023-06-04T01:21:48;13.20;99.90
18729;DHT22;9493;51.884;5.188;2023-06-04T01:24:21;13.20;99.90
18729;DHT22;9493;51.884;5.188;2023-06-04T01:26:50;13.10;99.90
18729;DHT22;9493;51.884;5.188;2023-06-04T01:29:21;13.10;99.90
18729;DHT22;9493;51.884;5.188;2023-06-04T01:31:49;13.00;99.90
18729;DHT22;9493;51.884;5.188;2023-06-04T01:34:18;13.00;99.90
18729;DHT22;9493;51.884;5.188;2023-06-04T01:36:45;13.10;99.90
18729;DHT22;9493;51.884;5.188;2023-06-04T01:39:12;13.00;99.90
18729;DHT22;9493;51.884;5.188;2023-06-04T01:41:40;13.00;99.90
18729;DHT22;9493;51.884;5.188;2023-06-04T01:44:07;13.00;99.90
18729;DHT22;9493;51.884;5.188;2023-06-04T01:46:33;13.00;99.90
18729;DHT22;9493;51.884;5.188;2023-06-04T01:49:00;12.90;99.90
18729;DHT22;9493;51.884;5.188;2023-06-04T01:51:27;12.80;99.90
18729;DHT22;9493;51.884;5.188;2023-06-04T01:53:54;12.80;99.90
18729;DHT22;9493;51.884;5.188;2023-06-04T01:56:20;12.80;99.90
18729;DHT22;9493;51.884;5.188;2023-06-04T01:58:49;12.80;99.90
18729;DHT22;9493;51.884;5.188;2023-06-04T02:01:16;12.70;99.90
18729;DHT22;9493;51.884;5.188;2023-06-04T02:03:42;12.70;99.90
18729;DHT22;9493;51.884;5.188;2023-06-04T02:06:10;12.60;99.90
18729;DHT22;9493;51.884;5.188;2023-06-04T02:08:37;12.60;99.90
18729;DHT22;9493;51.884;5.188;2023-06-04T02:11:05;12.60;99.90
18729;DHT22;9493;51.884;5.188;2023-06-04T02:13:32;12.50;99.90
18729;DHT22;9493;51.884;5.188;2023-06-04T02:16:00;12.60;99.90
18729;DHT22;9493;51.884;5.188;2023-06-04T02:18:27;12.50;99.90
18729;DHT22;9493;51.884;5.188;2023-06-04T02:20:56;12.50;99.90
18729;DHT22;9493;51.884;5.188;2023-06-04T02:23:23;12.40;99.90
18729;DHT22;9493;51.884;5.188;2023-06-04T02:25:49;12.40;99.90
18729;DHT22;9493;51.884;5.188;2023-06-04T02:28:16;12.30;99.90
18729;DHT22;9493;51.884;5.188;2023-06-04T02:30:44;12.30;99.90
18729;DHT22;9493;51.884;5.188;2023-06-04T02:33:13;12.30;99.90
18729;DHT22;9493;51.884;5.188;2023-06-04T02:35:40;12.20;99.90
18729;DHT22;9493;51.884;5.188;2023-06-04T02:38:07;12.10;99.90
18729;DHT22;9493;51.884;5.188;2023-06-04T02:40:33;12.10;99.90
18729;DHT22;9493;51.884;5.188;2023-06-04T02:43:00;12.20;99.90
18729;DHT22;9493;51.884;5.188;2023-06-04T02:45:27;12.10;99.90
18729;DHT22;9493;51.884;5.188;2023-06-04T02:47:54;12.00;99.90
18729;DHT22;9493;51.884;5.188;2023-06-04T02:50:22;12.00;99.90
18729;DHT22;9493;51.884;5.188;2023-06-04T02:52:49;12.00;99.90
18729;DHT22;9493;51.884;5.188;2023-06-04T02:55:16;11.90;99.90
18729;DHT22;9493;51.884;5.188;2023-06-04T02:57:43;11.90;99.90
18729;DHT22;9493;51.884;5.188;2023-06-04T03:00:10;12.00;99.90
18729;DHT22;9493;51.884;5.188;2023-06-04T03:02:40;11.90;99.90
18729;DHT22;9493;51.884;5.188;2023-06-04T03:05:08;11.90;99.90
18729;DHT22;9493;51.884;5.188;2023-06-04T03:07:37;11.90;99.90
18729;DHT22;9493;51.884;5.188;2023-06-04T03:10:05;11.80;99.90
18729;DHT22;9493;51.884;5.188;2023-06-04T03:12:32;11.80;99.90
18729;DHT22;9493;51.884;5.188;2023-06-04T03:14:58;11.70;99.90
18729;DHT22;9493;51.884;5.188;2023-06-04T03:17:26;11.80;99.90
18729;DHT22;9493;51.884;5.188;2023-06-04T03:19:52;11.70;99.90
18729;DHT22;9493;51.884;5.188;2023-06-04T03:22:21;11.90;99.90
18729;DHT22;9493;51.884;5.188;2023-06-04T03:24:50;11.70;99.90
18729;DHT22;9493;51.884;5.188;2023-06-04T03:27:18;11.60;99.90
18729;DHT22;9493;51.884;5.188;2023-06-04T03:29:45;11.60;99.90
18729;DHT22;9493;51.884;5.188;2023-06-04T03:32:12;11.50;99.90
18729;DHT22;9493;51.884;5.188;2023-06-04T03:34:39;11.50;99.90
18729;DHT22;9493;51.884;5.188;2023-06-04T03:37:06;11.50;99.90
18729;DHT22;9493;51.884;5.188;2023-06-04T03:39:32;11.60;99.90
18729;DHT22;9493;51.884;5.188;2023-06-04T03:42:01;11.50;99.90
18729;DHT22;9493;51.884;5.188;2023-06-04T03:44:28;11.50;99.90
18729;DHT22;9493;51.884;5.188;2023-06-04T03:46:55;11.50;99.90
18729;DHT22;9493;51.884;5.188;2023-06-04T03:49:21;11.50;99.90
18729;DHT22;9493;51.884;5.188;2023-06-04T03:51:48;11.50;99.90
18729;DHT22;9493;51.884;5.188;2023-06-04T03:54:15;11.40;99.90
18729;DHT22;9493;51.884;5.188;2023-06-04T03:56:44;11.40;99.90
18729;DHT22;9493;51.884;5.188;2023-06-04T03:59:12;11.40;99.90
18729;DHT22;9493;51.884;5.188;2023-06-04T04:01:39;11.40;99.90
18729;DHT22;9493;51.884;5.188;2023-06-04T04:04:06;11.40;99.90
18729;DHT22;9493;51.884;5.188;2023-06-04T04:06:33;11.40;99.90
18729;DHT22;9493;51.884;5.188;2023-06-04T04:09:02;11.40;99.90
18729;DHT22;9493;51.884;5.188;2023-06-04T04:11:29;11.50;99.90
18729;DHT22;9493;51.884;5.188;2023-06-04T04:13:56;11.40;99.90
18729;DHT22;9493;51.884;5.188;2023-06-04T04:16:24;11.60;99.90
18729;DHT22;9493;51.884;5.188;2023-06-04T04:18:53;11.50;99.90
18729;DHT22;9493;51.884;5.188;2023-06-04T04:21:20;11.40;99.90
18729;DHT22;9493;51.884;5.188;2023-06-04T04:23:48;11.50;99.90
18729;DHT22;9493;51.884;5.188;2023-06-04T04:26:15;11.50;99.90
18729;DHT22;9493;51.884;5.188;2023-06-04T04:28:42;11.70;99.90
18729;DHT22;9493;51.884;5.188;2023-06-04T04:31:09;11.50;99.90
18729;DHT22;9493;51.884;5.188;2023-06-04T04:33:38;11.50;99.90
18729;DHT22;9493;51.884;5.188;2023-06-04T04:36:06;11.60;99.90
18729;DHT22;9493;51.884;5.188;2023-06-04T04:38:37;11.60;99.90
18729;DHT22;9493;51.884;5.188;2023-06-04T04:41:05;11.60;99.90
18729;DHT22;9493;51.884;5.188;2023-06-04T04:43:33;11.70;99.90
18729;DHT22;9493;51.884;5.188;2023-06-04T04:46:01;11.70;99.90
18729;DHT22;9493;51.884;5.188;2023-06-04T04:48:27;11.70;99.90
18729;DHT22;9493;51.884;5.188;2023-06-04T04:50:55;11.80;99.90
18729;DHT22;9493;51.884;5.188;2023-06-04T04:53:22;11.70;99.90
18729;DHT22;9493;51.884;5.188;2023-06-04T04:55:49;11.70;99.90
18729;DHT22;9493;51.884;5.188;2023-06-04T04:58:17;11.80;99.90
18729;DHT22;9493;51.884;5.188;2023-06-04T05:00:44;11.80;99.90
18729;DHT22;9493;51.884;5.188;2023-06-04T05:03:11;12.00;99.90
18729;DHT22;9493;51.884;5.188;2023-06-04T05:05:38;11.90;99.90
18729;DHT22;9493;51.884;5.188;2023-06-04T05:08:06;12.00;99.90
18729;DHT22;9493;51.884;5.188;2023-06-04T05:10:33;12.10;99.90
18729;DHT22;9493;51.884;5.188;2023-06-04T05:13:02;12.00;99.90
18729;DHT22;9493;51.884;5.188;2023-06-04T05:15:30;12.20;99.90
18729;DHT22;9493;51.884;5.188;2023-06-04T05:17:57;12.20;99.90
18729;DHT22;9493;51.884;5.188;2023-06-04T05:20:26;12.30;99.90
18729;DHT22;9493;51.884;5.188;2023-06-04T05:22:52;12.30;99.90
18729;DHT22;9493;51.884;5.188;2023-06-04T05:25:22;12.40;99.90
18729;DHT22;9493;51.884;5.188;2023-06-04T05:27:49;12.40;99.90
18729;DHT22;9493;51.884;5.188;2023-06-04T05:30:16;12.50;99.90
18729;DHT22;9493;51.884;5.188;2023-06-04T05:32:43;12.60;99.90
18729;DHT22;9493;51.884;5.188;2023-06-04T05:35:09;12.60;99.90
18729;DHT22;9493;51.884;5.188;2023-06-04T05:37:38;12.70;99.90
18729;DHT22;9493;51.884;5.188;2023-06-04T05:40:06;12.80;99.90
18729;DHT22;9493;51.884;5.188;2023-06-04T05:42:36;12.90;99.90
18729;DHT22;9493;51.884;5.188;2023-06-04T05:45:03;13.00;99.90
18729;DHT22;9493;51.884;5.188;2023-06-04T05:47:30;13.00;99.90
18729;DHT22;9493;51.884;5.188;2023-06-04T05:49:57;13.10;99.90
18729;DHT22;9493;51.884;5.188;2023-06-04T05:52:24;13.20;99.90
18729;DHT22;9493;51.884;5.188;2023-06-04T05:54:50;13.30;99.90
18729;DHT22;9493;51.884;5.188;2023-06-04T05:57:17;13.40;99.90
18729;DHT22;9493;51.884;5.188;2023-06-04T05:59:45;13.50;99.90
18729;DHT22;9493;51.884;5.188;2023-06-04T06:02:12;13.60;99.90
18729;DHT22;9493;51.884;5.188;2023-06-04T06:04:40;13.80;99.90
18729;DHT22;9493;51.884;5.188;2023-06-04T06:07:06;13.80;99.90
18729;DHT22;9493;51.884;5.188;2023-06-04T06:09:33;13.80;99.90
18729;DHT22;9493;51.884;5.188;2023-06-04T06:12:01;13.80;99.90
18729;DHT22;9493;51.884;5.188;2023-06-04T06:14:27;14.00;99.90
18729;DHT22;9493;51.884;5.188;2023-06-04T06:16:56;14.20;99.90
18729;DHT22;9493;51.884;5.188;2023-06-04T06:19:22;14.20;99.90
18729;DHT22;9493;51.884;5.188;2023-06-04T06:21:50;14.30;99.90
18729;DHT22;9493;51.884;5.188;2023-06-04T06:24:17;14.40;99.90
18729;DHT22;9493;51.884;5.188;2023-06-04T06:26:43;14.40;99.90
18729;DHT22;9493;51.884;5.188;2023-06-04T06:29:10;14.50;99.90
18729;DHT22;9493;51.884;5.188;2023-06-04T06:31:37;14.50;99.90
18729;DHT22;9493;51.884;5.188;2023-06-04T06:34:05;14.70;99.90
18729;DHT22;9493;51.884;5.188;2023-06-04T06:36:31;14.90;99.90
18729;DHT22;9493;51.884;5.188;2023-06-04T06:38:59;14.90;99.90
18729;DHT22;9493;51.884;5.188;2023-06-04T06:41:26;15.00;99.90
18729;DHT22;9493;51.884;5.188;2023-06-04T06:43:53;15.10;99.90
18729;DHT22;9493;51.884;5.188;2023-06-04T06:46:20;15.20;99.90
18729;DHT22;9493;51.884;5.188;2023-06-04T06:48:48;15.30;99.90
18729;DHT22;9493;51.884;5.188;2023-06-04T06:51:16;15.50;99.90
18729;DHT22;9493;51.884;5.188;2023-06-04T06:53:43;15.60;99.90
18729;DHT22;9493;51.884;5.188;2023-06-04T06:56:10;15.80;99.90
18729;DHT22;9493;51.884;5.188;2023-06-04T06:58:37;15.80;99.90
18729;DHT22;9493;51.884;5.188;2023-06-04T07:01:03;16.10;99.90
18729;DHT22;9493;51.884;5.188;2023-06-04T07:03:31;16.30;99.90
18729;DHT22;9493;51.884;5.188;2023-06-04T07:05:58;16.50;99.90
18729;DHT22;9493;51.884;5.188;2023-06-04T07:08:26;16.80;99.90
18729;DHT22;9493;51.884;5.188;2023-06-04T07:10:54;17.00;99.80
18729;DHT22;9493;51.884;5.188;2023-06-04T07:13:20;17.10;99.50
18729;DHT22;9493;51.884;5.188;2023-06-04T07:15:47;17.30;99.20
18729;DHT22;9493;51.884;5.188;2023-06-04T07:18:14;17.40;99.00
18729;DHT22;9493;51.884;5.188;2023-06-04T07:20:41;17.70;98.80
18729;DHT22;9493;51.884;5.188;2023-06-04T07:23:07;17.90;98.60
18729;DHT22;9493;51.884;5.188;2023-06-04T07:25:35;18.20;98.40
18729;DHT22;9493;51.884;5.188;2023-06-04T07:28:02;18.40;98.10
18729;DHT22;9493;51.884;5.188;2023-06-04T07:30:30;18.60;97.90
18729;DHT22;9493;51.884;5.188;2023-06-04T07:32:57;18.80;97.20
18729;DHT22;9493;51.884;5.188;2023-06-04T07:35:24;18.90;96.60
18729;DHT22;9493;51.884;5.188;2023-06-04T07:37:51;19.10;96.00
18729;DHT22;9493;51.884;5.188;2023-06-04T07:40:18;19.20;95.70
18729;DHT22;9493;51.884;5.188;2023-06-04T07:42:46;19.40;95.30
18729;DHT22;9493;51.884;5.188;2023-06-04T07:45:13;19.70;94.90
18729;DHT22;9493;51.884;5.188;2023-06-04T07:47:40;19.70;94.50
18729;DHT22;9493;51.884;5.188;2023-06-04T07:50:08;19.70;94.30
18729;DHT22;9493;51.884;5.188;2023-06-04T07:52:35;19.90;94.00
18729;DHT22;9493;51.884;5.188;2023-06-04T07:55:02;20.20;93.70
18729;DHT22;9493;51.884;5.188;2023-06-04T07:57:30;20.00;93.30
18729;DHT22;9493;51.884;5.188;2023-06-04T07:59:58;20.10;92.90
18729;DHT22;9493;51.884;5.188;2023-06-04T08:02:27;20.60;92.70
18729;DHT22;9493;51.884;5.188;2023-06-04T08:04:53;20.70;92.50
18729;DHT22;9493;51.884;5.188;2023-06-04T08:07:20;21.20;92.40
18729;DHT22;9493;51.884;5.188;2023-06-04T08:09:47;21.40;92.10
18729;DHT22;9493;51.884;5.188;2023-06-04T08:12:15;21.40;91.90
18729;DHT22;9493;51.884;5.188;2023-06-04T08:14:42;21.70;91.60
18729;DHT22;9493;51.884;5.188;2023-06-04T08:17:10;21.60;91.30
18729;DHT22;9493;51.884;5.188;2023-06-04T08:19:37;21.80;90.90
18729;DHT22;9493;51.884;5.188;2023-06-04T08:22:03;21.70;90.40
18729;DHT22;9493;51.884;5.188;2023-06-04T08:24:31;21.60;90.00
18729;DHT22;9493;51.884;5.188;2023-06-04T08:26:58;21.80;88.90
18729;DHT22;9493;51.884;5.188;2023-06-04T08:29:25;21.90;88.20
18729;DHT22;9493;51.884;5.188;2023-06-04T08:31:52;21.90;87.70
18729;DHT22;9493;51.884;5.188;2023-06-04T08:34:20;22.10;87.30
18729;DHT22;9493;51.884;5.188;2023-06-04T08:36:47;22.60;86.70
18729;DHT22;9493;51.884;5.188;2023-06-04T08:39:13;22.90;86.50
18729;DHT22;9493;51.884;5.188;2023-06-04T08:41:43;22.90;86.00
18729;DHT22;9493;51.884;5.188;2023-06-04T08:44:10;22.80;85.60
18729;DHT22;9493;51.884;5.188;2023-06-04T08:46:39;22.90;85.20
18729;DHT22;9493;51.884;5.188;2023-06-04T08:49:06;23.00;85.00
18729;DHT22;9493;51.884;5.188;2023-06-04T08:51:37;23.00;84.90
18729;DHT22;9493;51.884;5.188;2023-06-04T08:54:05;23.40;84.60
18729;DHT22;9493;51.884;5.188;2023-06-04T08:56:33;23.50;83.90
18729;DHT22;9493;51.884;5.188;2023-06-04T08:59:01;23.50;83.70
18729;DHT22;9493;51.884;5.188;2023-06-04T09:01:28;23.80;83.20
18729;DHT22;9493;51.884;5.188;2023-06-04T09:03:55;24.30;82.90
18729;DHT22;9493;51.884;5.188;2023-06-04T09:06:24;24.30;82.60
18729;DHT22;9493;51.884;5.188;2023-06-04T09:08:55;24.60;82.50
18729;DHT22;9493;51.884;5.188;2023-06-04T09:11:24;24.60;82.10
18729;DHT22;9493;51.884;5.188;2023-06-04T09:13:53;24.50;81.10
18729;DHT22;9493;51.884;5.188;2023-06-04T09:16:21;24.20;80.90
18729;DHT22;9493;51.884;5.188;2023-06-04T09:18:48;24.30;80.60
18729;DHT22;9493;51.884;5.188;2023-06-04T09:21:15;24.70;80.20
18729;DHT22;9493;51.884;5.188;2023-06-04T09:23:44;24.50;79.50
18729;DHT22;9493;51.884;5.188;2023-06-04T09:26:13;24.40;79.10
18729;DHT22;9493;51.884;5.188;2023-06-04T09:28:40;24.40;78.00
18729;DHT22;9493;51.884;5.188;2023-06-04T09:31:09;24.20;77.70
18729;DHT22;9493;51.884;5.188;2023-06-04T09:33:42;24.40;77.70
18729;DHT22;9493;51.884;5.188;2023-06-04T09:36:10;24.80;77.30
18729;DHT22;9493;51.884;5.188;2023-06-04T09:38:37;25.10;77.40
18729;DHT22;9493;51.884;5.188;2023-06-04T09:41:04;25.30;76.90
18729;DHT22;9493;51.884;5.188;2023-06-04T09:43:33;25.10;75.90
18729;DHT22;9493;51.884;5.188;2023-06-04T09:46:14;25.50;75.60
18729;DHT22;9493;51.884;5.188;2023-06-04T09:48:41;25.60;75.30
18729;DHT22;9493;51.884;5.188;2023-06-04T09:51:09;25.60;74.80
18729;DHT22;9493;51.884;5.188;2023-06-04T09:53:36;25.60;73.90
18729;DHT22;9493;51.884;5.188;2023-06-04T09:56:04;26.00;72.90
18729;DHT22;9493;51.884;5.188;2023-06-04T09:58:33;25.70;72.00
18729;DHT22;9493;51.884;5.188;2023-06-04T10:01:03;25.80;71.60
18729;DHT22;9493;51.884;5.188;2023-06-04T10:03:34;26.20;71.30
18729;DHT22;9493;51.884;5.188;2023-06-04T10:06:02;26.40;71.10
18729;DHT22;9493;51.884;5.188;2023-06-04T10:08:30;26.00;71.10
18729;DHT22;9493;51.884;5.188;2023-06-04T10:10:59;26.10;71.00
18729;DHT22;9493;51.884;5.188;2023-06-04T10:13:29;26.70;70.70
18729;DHT22;9493;51.884;5.188;2023-06-04T10:15:58;26.50;70.50
18729;DHT22;9493;51.884;5.188;2023-06-04T10:18:27;26.90;70.20
18729;DHT22;9493;51.884;5.188;2023-06-04T10:20:55;27.00;69.30
18729;DHT22;9493;51.884;5.188;2023-06-04T10:23:22;27.40;68.90
18729;DHT22;9493;51.884;5.188;2023-06-04T10:25:50;27.40;68.70
18729;DHT22;9493;51.884;5.188;2023-06-04T10:28:18;26.90;68.30
18729;DHT22;9493;51.884;5.188;2023-06-04T10:30:46;27.00;67.80
18729;DHT22;9493;51.884;5.188;2023-06-04T10:33:17;26.60;67.30
18729;DHT22;9493;51.884;5.188;2023-06-04T10:35:50;26.70;67.30
18729;DHT22;9493;51.884;5.188;2023-06-04T10:38:17;26.70;66.90
18729;DHT22;9493;51.884;5.188;2023-06-04T10:40:46;26.60;66.50
18729;DHT22;9493;51.884;5.188;2023-06-04T10:43:13;26.50;66.20
18729;DHT22;9493;51.884;5.188;2023-06-04T10:45:41;26.80;65.90
18729;DHT22;9493;51.884;5.188;2023-06-04T10:48:09;26.90;66.00
18729;DHT22;9493;51.884;5.188;2023-06-04T10:50:48;27.60;65.50
18729;DHT22;9493;51.884;5.188;2023-06-04T10:53:16;27.70;65.20
18729;DHT22;9493;51.884;5.188;2023-06-04T10:55:44;27.70;65.00
18729;DHT22;9493;51.884;5.188;2023-06-04T10:58:11;27.70;64.70
18729;DHT22;9493;51.884;5.188;2023-06-04T11:00:40;28.10;64.60
18729;DHT22;9493;51.884;5.188;2023-06-04T11:03:09;28.00;64.20
18729;DHT22;9493;51.884;5.188;2023-06-04T11:05:38;28.30;64.10
18729;DHT22;9493;51.884;5.188;2023-06-04T11:08:05;28.00;63.50
18729;DHT22;9493;51.884;5.188;2023-06-04T11:10:33;27.70;62.30
18729;DHT22;9493;51.884;5.188;2023-06-04T11:13:01;27.80;62.20
18729;DHT22;9493;51.884;5.188;2023-06-04T11:15:37;28.20;61.70
18729;DHT22;9493;51.884;5.188;2023-06-04T11:18:04;28.30;61.40
18729;DHT22;9493;51.884;5.188;2023-06-04T11:20:31;27.80;60.60
18729;DHT22;9493;51.884;5.188;2023-06-04T11:23:00;27.90;60.40
18729;DHT22;9493;51.884;5.188;2023-06-04T11:25:29;28.00;60.30
18729;DHT22;9493;51.884;5.188;2023-06-04T11:27:56;28.90;60.30
18729;DHT22;9493;51.884;5.188;2023-06-04T11:30:24;28.60;60.10
18729;DHT22;9493;51.884;5.188;2023-06-04T12:12:46;28.90;56.40
18729;DHT22;9493;51.884;5.188;2023-06-04T12:15:19;29.20;56.50
18729;DHT22;9493;51.884;5.188;2023-06-04T12:17:50;29.20;56.50
18729;DHT22;9493;51.884;5.188;2023-06-04T12:20:17;29.30;56.20
18729;DHT22;9493;51.884;5.188;2023-06-04T12:22:45;29.30;56.00
18729;DHT22;9493;51.884;5.188;2023-06-04T12:25:22;29.10;56.10
18729;DHT22;9493;51.884;5.188;2023-06-04T12:27:51;29.20;56.00
18729;DHT22;9493;51.884;5.188;2023-06-04T12:30:18;29.20;55.30
18729;DHT22;9493;51.884;5.188;2023-06-04T12:32:45;29.50;55.30
18729;DHT22;9493;51.884;5.188;2023-06-04T12:35:12;29.90;55.40
18729;DHT22;9493;51.884;5.188;2023-06-04T12:37:39;30.00;55.10
18729;DHT22;9493;51.884;5.188;2023-06-04T12:40:07;30.00;55.10
18729;DHT22;9493;51.884;5.188;2023-06-04T12:42:34;29.90;55.00
18729;DHT22;9493;51.884;5.188;2023-06-04T12:45:03;29.70;55.20
18729;DHT22;9493;51.884;5.188;2023-06-04T12:47:30;30.00;54.90
18729;DHT22;9493;51.884;5.188;2023-06-04T12:49:57;30.00;54.70
18729;DHT22;9493;51.884;5.188;2023-06-04T12:52:26;29.70;54.90
18729;DHT22;9493;51.884;5.188;2023-06-04T12:54:52;29.90;54.50
18729;DHT22;9493;51.884;5.188;2023-06-04T12:57:19;29.50;54.60
18729;DHT22;9493;51.884;5.188;2023-06-04T12:59:46;29.80;54.50
18729;DHT22;9493;51.884;5.188;2023-06-04T13:02:14;29.90;54.70
18729;DHT22;9493;51.884;5.188;2023-06-04T13:04:41;30.10;54.40
18729;DHT22;9493;51.884;5.188;2023-06-04T13:07:10;30.50;54.20
18729;DHT22;9493;51.884;5.188;2023-06-04T13:09:37;29.80;54.30
18729;DHT22;9493;51.884;5.188;2023-06-04T13:12:04;29.70;54.20
18729;DHT22;9493;51.884;5.188;2023-06-04T13:14:31;29.40;54.10
18729;DHT22;9493;51.884;5.188;2023-06-04T13:16:59;29.90;53.90
18729;DHT22;9493;51.884;5.188;2023-06-04T13:19:27;29.90;54.20
18729;DHT22;9493;51.884;5.188;2023-06-04T13:21:53;30.50;54.20
18729;DHT22;9493;51.884;5.188;2023-06-04T13:24:22;29.50;54.10
18729;DHT22;9493;51.884;5.188;2023-06-04T13:26:49;29.50;54.10
18729;DHT22;9493;51.884;5.188;2023-06-04T13:29:16;29.70;54.30
18729;DHT22;9493;51.884;5.188;2023-06-04T13:31:47;29.40;54.40
18729;DHT22;9493;51.884;5.188;2023-06-04T13:34:14;29.30;54.20
18729;DHT22;9493;51.884;5.188;2023-06-04T13:36:42;29.10;54.20
18729;DHT22;9493;51.884;5.188;2023-06-04T13:39:09;29.20;54.30
18729;DHT22;9493;51.884;5.188;2023-06-04T13:41:36;29.20;54.40
18729;DHT22;9493;51.884;5.188;2023-06-04T13:44:03;29.30;54.20
18729;DHT22;9493;51.884;5.188;2023-06-04T13:46:29;28.90;54.30
18729;DHT22;9493;51.884;5.188;2023-06-04T13:48:56;29.30;54.20
18729;DHT22;9493;51.884;5.188;2023-06-04T13:51:23;29.60;54.30
18729;DHT22;9493;51.884;5.188;2023-06-04T13:53:51;30.00;54.40
18729;DHT22;9493;51.884;5.188;2023-06-04T13:56:19;29.50;54.20
18729;DHT22;9493;51.884;5.188;2023-06-04T13:58:46;29.40;54.40
18729;DHT22;9493;51.884;5.188;2023-06-04T14:01:12;29.70;54.50
18729;DHT22;9493;51.884;5.188;2023-06-04T14:03:39;29.70;54.80
18729;DHT22;9493;51.884;5.188;2023-06-04T14:06:06;29.80;54.80
18729;DHT22;9493;51.884;5.188;2023-06-04T14:08:33;29.90;55.00
18729;DHT22;9493;51.884;5.188;2023-06-04T14:11:01;30.30;55.10
18729;DHT22;9493;51.884;5.188;2023-06-04T14:13:28;30.50;55.10
18729;DHT22;9493;51.884;5.188;2023-06-04T14:15:55;30.50;54.70
18729;DHT22;9493;51.884;5.188;2023-06-04T14:18:22;30.00;54.80
18729;DHT22;9493;51.884;5.188;2023-06-04T14:20:50;29.90;54.80
18729;DHT22;9493;51.884;5.188;2023-06-04T14:23:16;29.70;54.70
18729;DHT22;9493;51.884;5.188;2023-06-04T14:25:44;29.50;54.80
18729;DHT22;9493;51.884;5.188;2023-06-04T14:28:12;29.40;55.00
18729;DHT22;9493;51.884;5.188;2023-06-04T14:30:39;29.30;55.50
18729;DHT22;9493;51.884;5.188;2023-06-04T14:33:05;28.90;56.70
18729;DHT22;9493;51.884;5.188;2023-06-04T14:35:32;28.50;58.80
18729;DHT22;9493;51.884;5.188;2023-06-04T14:37:59;28.70;60.20
18729;DHT22;9493;51.884;5.188;2023-06-04T14:40:25;29.00;60.50
18729;DHT22;9493;51.884;5.188;2023-06-04T14:42:52;28.90;61.80
18729;DHT22;9493;51.884;5.188;2023-06-04T14:45:21;29.20;62.00
18729;DHT22;9493;51.884;5.188;2023-06-04T14:47:48;29.20;62.30
18729;DHT22;9493;51.884;5.188;2023-06-04T14:50:17;29.30;62.50
18729;DHT22;9493;51.884;5.188;2023-06-04T14:52:44;28.60;62.70
18729;DHT22;9493;51.884;5.188;2023-06-04T14:55:11;28.20;63.10
18729;DHT22;9493;51.884;5.188;2023-06-04T14:57:38;28.30;63.30
18729;DHT22;9493;51.884;5.188;2023-06-04T15:00:06;28.30;63.70
18729;DHT22;9493;51.884;5.188;2023-06-04T15:02:34;28.10;64.00
18729;DHT22;9493;51.884;5.188;2023-06-04T15:05:01;28.10;64.20
18729;DHT22;9493;51.884;5.188;2023-06-04T15:07:29;28.30;64.40
18729;DHT22;9493;51.884;5.188;2023-06-04T15:09:56;27.90;64.80
18729;DHT22;9493;51.884;5.188;2023-06-04T15:12:22;27.70;64.70
18729;DHT22;9493;51.884;5.188;2023-06-04T15:14:49;27.90;64.70
18729;DHT22;9493;51.884;5.188;2023-06-04T15:17:16;27.80;64.80
18729;DHT22;9493;51.884;5.188;2023-06-04T15:19:44;27.60;65.00
18729;DHT22;9493;51.884;5.188;2023-06-04T15:22:11;27.50;65.10
18729;DHT22;9493;51.884;5.188;2023-06-04T15:24:38;27.50;64.80
18729;DHT22;9493;51.884;5.188;2023-06-04T15:27:05;27.60;65.10
18729;DHT22;9493;51.884;5.188;2023-06-04T15:29:31;27.40;65.10
18729;DHT22;9493;51.884;5.188;2023-06-04T15:31:58;26.70;65.40
18729;DHT22;9493;51.884;5.188;2023-06-04T15:34:25;26.90;65.50
18729;DHT22;9493;51.884;5.188;2023-06-04T15:36:53;27.40;65.60
18729;DHT22;9493;51.884;5.188;2023-06-04T15:39:21;27.20;65.70
18729;DHT22;9493;51.884;5.188;2023-06-04T15:41:47;26.90;65.70
18729;DHT22;9493;51.884;5.188;2023-06-04T15:44:14;26.70;65.90
18729;DHT22;9493;51.884;5.188;2023-06-04T15:46:41;26.80;65.80
18729;DHT22;9493;51.884;5.188;2023-06-04T15:49:09;26.60;65.90
18729;DHT22;9493;51.884;5.188;2023-06-04T15:51:36;26.30;66.00
18729;DHT22;9493;51.884;5.188;2023-06-04T15:54:04;26.40;66.20
18729;DHT22;9493;51.884;5.188;2023-06-04T15:56:31;26.70;66.10
18729;DHT22;9493;51.884;5.188;2023-06-04T15:58:58;26.60;66.20
18729;DHT22;9493;51.884;5.188;2023-06-04T16:01:25;26.50;66.40
18729;DHT22;9493;51.884;5.188;2023-06-04T16:03:51;26.50;66.60
18729;DHT22;9493;51.884;5.188;2023-06-04T16:06:19;26.80;66.80
18729;DHT22;9493;51.884;5.188;2023-06-04T16:08:46;26.10;67.00
18729;DHT22;9493;51.884;5.188;2023-06-04T16:11:14;26.10;67.30
18729;DHT22;9493;51.884;5.188;2023-06-04T16:13:41;25.80;67.40
18729;DHT22;9493;51.884;5.188;2023-06-04T16:16:08;25.70;67.70
18729;DHT22;9493;51.884;5.188;2023-06-04T16:18:38;25.80;67.80
18729;DHT22;9493;51.884;5.188;2023-06-04T16:21:05;26.10;68.00
18729;DHT22;9493;51.884;5.188;2023-06-04T16:23:31;25.70;68.20
18729;DHT22;9493;51.884;5.188;2023-06-04T16:25:58;26.00;68.50